Pleasant Home, Ohio
Current Conditions -  °F | °C
As of 11:56 PM on Wednesday 26 Nov 2014 (Local Time) from KBJJ Reporting Station
Haze Haze  
Wind Chill: 24°   Ceiling: Unl
Heat Index: 30°   Visibility: 6mi
Dew Point: 26°   Wind: 6mph
Humidity: 85%   Direction: 280°W
Pressure: 30.03"   Gusts: NA
Location:  40.9441°N, 82.1006°W
Report Text: KBJJ 270456Z AUTO 28005KT 6SM BR CLR M01/M03 A3003 RMK AO2 SLP180 T10111033 400221028 TSNO
Loading
Personal Weather Stations






























Interactive Weather Map New forecast layout! Learn more

10-Day Weather Forecast

Advertisements
Track Severe Weather on mobile